Nicholls, Georgia
Current Conditions -  °F | °C
As of 9:53 AM on Thursday 30 Oct 2014 (Local Time) from KAMG Reporting Station
Broken Clouds Broken Clouds  
Wind Chill: 60°   Ceiling: 9500
Heat Index: 60°   Visibility: 10mi
Dew Point: 48°   Wind: 7mph
Humidity: 64%   Direction: 350°N
Pressure: 30.02"   Gusts: NA
Location:  31.52°N, 82.63°W
Report Text: KAMG 301353Z AUTO 35006KT 10SM BKN095 BKN110 16/09 A3002 RMK AO2 SLP164 T01560089
Loading
Personal Weather Stations






























Interactive Weather Map
Tropical Storm Tracking
New forecast layout! Learn more

10-Day Weather Forecast

Advertisements
Track Severe Weather on mobile